Time;durP1;ratioP1;P1;durP2;ratioP2;P2;SDS_P1;SDS_P2;PMS_P1;PMS_P2;Temp;Humidity;BMP_temperature;BMP_pressure;BME280_temperature;BME280_humidity;BME280_pressure;Samples;Min_cycle;Max_cycle;Signal;HPM_P1;HPM_P2
2022/07/14 00:02:04;;;;;;;1.30;0.50;;;24.40;1.00;;;;;;5117067;28;20479;-72
2022/07/14 00:04:32;;;;;;;0.50;0.40;;;24.30;1.00;;;;;;5115763;28;20463;-71
2022/07/14 00:06:59;;;;;;;1.53;0.30;;;24.30;1.00;;;;;;5117650;28;20588;-73
2022/07/14 00:09:26;;;;;;;0.60;0.40;;;24.20;1.00;;;;;;5118310;28;20536;-72
2022/07/14 00:11:53;;;;;;;0.57;0.40;;;24.10;1.00;;;;;;5118099;28;20793;-72
2022/07/14 00:14:20;;;;;;;0.77;0.50;;;24.10;1.00;;;;;;5116995;28;20511;-72
2022/07/14 00:16:47;;;;;;;0.53;0.40;;;24.10;1.00;;;;;;5115720;28;20483;-72
2022/07/14 00:19:14;;;;;;;0.53;0.33;;;24.00;1.00;;;;;;5116994;28;20505;-72
2022/07/14 00:21:42;;;;;;;0.60;0.43;;;24.10;1.00;;;;;;5117121;28;20947;-73
2022/07/14 00:24:11;;;;;;;0.93;0.40;;;24.00;1.00;;;;;;5117060;28;20488;-71
2022/07/14 00:26:39;;;;;;;1.30;0.50;;;23.90;1.00;;;;;;5117680;28;20622;-72
2022/07/14 00:29:06;;;;;;;0.50;0.40;;;23.90;1.00;;;;;;5117242;28;20540;-72
2022/07/14 00:31:33;;;;;;;0.77;0.50;;;23.80;1.00;;;;;;5117753;28;20468;-71
2022/07/14 00:34:01;;;;;;;0.90;0.60;;;23.70;1.00;;;;;;5116992;28;20437;-72
2022/07/14 00:36:28;;;;;;;3.03;0.50;;;23.70;1.00;;;;;;5117433;28;20539;-73
2022/07/14 00:38:57;;;;;;;0.90;0.60;;;23.70;1.00;;;;;;5117027;28;20522;-72
2022/07/14 00:41:24;;;;;;;0.80;0.50;;;23.60;1.00;;;;;;5116902;28;20520;-72
2022/07/14 00:43:51;;;;;;;0.70;0.50;;;23.60;1.00;;;;;;5117312;28;20937;-72
2022/07/14 00:46:18;;;;;;;0.80;0.47;;;23.60;1.00;;;;;;5117709;28;20926;-72
2022/07/14 00:48:45;;;;;;;0.63;0.50;;;23.60;1.00;;;;;;5117075;28;20553;-73
2022/07/14 00:51:12;;;;;;;0.60;0.40;;;23.60;1.00;;;;;;5117169;28;20449;-72
2022/07/14 00:53:39;;;;;;;2.37;0.60;;;23.50;1.00;;;;;;5117803;28;20502;-72
2022/07/14 00:56:08;;;;;;;0.93;0.50;;;23.50;1.00;;;;;;5118358;28;20472;-73
2022/07/14 00:58:35;;;;;;;1.20;0.50;;;23.40;1.00;;;;;;5119220;28;20471;-72
2022/07/14 01:01:01;;;;;;;0.67;0.50;;;23.40;1.00;;;;;;5119907;28;20457;-72
2022/07/14 01:03:28;;;;;;;0.70;0.50;;;23.40;1.00;;;;;;5120328;28;20465;-71
2022/07/14 01:05:55;;;;;;;1.53;0.60;;;23.40;1.00;;;;;;5119261;28;20464;-72
2022/07/14 01:08:22;;;;;;;0.80;0.50;;;23.40;1.00;;;;;;5118068;28;20504;-72
2022/07/14 01:10:49;;;;;;;1.13;0.50;;;23.30;1.00;;;;;;5118398;28;20951;-72
2022/07/14 01:13:18;;;;;;;2.20;0.50;;;23.30;1.00;;;;;;5118068;28;20464;-72
2022/07/14 01:15:45;;;;;;;0.70;0.50;;;23.30;1.00;;;;;;5117101;28;20436;-71
2022/07/14 01:18:12;;;;;;;0.77;0.47;;;23.20;1.00;;;;;;5117517;28;20433;-72
2022/07/14 01:20:39;;;;;;;0.60;0.50;;;23.10;1.00;;;;;;5117248;28;20476;-72
2022/07/14 01:23:07;;;;;;;0.70;0.40;;;23.00;1.00;;;;;;5116918;28;20449;-71
2022/07/14 01:25:34;;;;;;;2.00;0.60;;;22.90;1.00;;;;;;5116937;28;20495;-72
2022/07/14 01:28:01;;;;;;;0.53;0.40;;;22.80;1.00;;;;;;5116666;28;20856;-71
2022/07/14 01:30:28;;;;;;;1.17;0.50;;;22.80;1.00;;;;;;5115916;28;20555;-71
2022/07/14 01:32:56;;;;;;;1.17;0.50;;;22.80;1.00;;;;;;5116438;28;20479;-72
2022/07/14 01:35:23;;;;;;;1.00;0.60;;;22.70;1.00;;;;;;5116879;28;20463;-72
2022/07/14 01:37:50;;;;;;;1.30;1.20;;;22.70;1.00;;;;;;5116379;28;20477;-72
2022/07/14 01:40:18;;;;;;;1.07;0.50;;;22.60;1.00;;;;;;5116816;28;20931;-71
2022/07/14 01:42:45;;;;;;;1.00;0.50;;;22.50;1.00;;;;;;5117123;28;20531;-72
2022/07/14 01:45:13;;;;;;;0.97;0.50;;;22.50;1.00;;;;;;5116702;28;20533;-71
2022/07/14 01:47:40;;;;;;;0.57;0.50;;;22.50;1.00;;;;;;5116182;28;20486;-72
2022/07/14 01:50:08;;;;;;;0.80;0.50;;;22.50;1.00;;;;;;5116560;28;20549;-72
2022/07/14 01:52:35;;;;;;;0.80;0.50;;;22.40;1.00;;;;;;5115865;28;20509;-71
2022/07/14 01:55:02;;;;;;;0.70;0.50;;;22.30;1.00;;;;;;5116432;28;20488;-72
2022/07/14 01:57:30;;;;;;;0.60;0.50;;;22.20;1.00;;;;;;5114053;28;20516;-74
2022/07/14 01:59:57;;;;;;;1.00;0.50;;;22.10;1.00;;;;;;5116255;28;20779;-72
2022/07/14 02:02:24;;;;;;;1.50;0.50;;;22.00;1.00;;;;;;5116427;28;20891;-72
2022/07/14 02:04:51;;;;;;;0.77;0.60;;;22.00;1.00;;;;;;5116171;28;20485;-71
2022/07/14 02:07:18;;;;;;;0.70;0.50;;;22.00;1.00;;;;;;5116331;28;20953;-72
2022/07/14 02:12:30;;;;;;;0.83;0.50;;;21.90;1.00;;;;;;5115226;28;20421;-73
2022/07/14 02:14:57;;;;;;;1.83;0.50;;;21.90;1.00;;;;;;5114510;28;20480;-72
2022/07/14 02:17:24;;;;;;;1.70;0.50;;;21.90;1.00;;;;;;5114837;28;20468;-72
2022/07/14 02:19:51;;;;;;;1.13;0.40;;;21.90;1.00;;;;;;5114536;28;20456;-72
2022/07/14 02:22:18;;;;;;;0.60;0.40;;;21.80;1.00;;;;;;5114530;28;20527;-72
2022/07/14 02:24:45;;;;;;;0.90;0.50;;;21.80;1.00;;;;;;5114407;28;20570;-73
2022/07/14 02:27:12;;;;;;;0.50;0.50;;;21.70;1.00;;;;;;5115346;28;20460;-72
2022/07/14 02:29:40;;;;;;;1.33;0.50;;;21.70;1.00;;;;;;5116209;28;20547;-72
2022/07/14 02:32:07;;;;;;;0.70;0.47;;;21.70;1.00;;;;;;5115952;28;20561;-72
2022/07/14 02:34:34;;;;;;;0.70;0.50;;;21.60;1.00;;;;;;5116109;28;20522;-72
2022/07/14 02:37:01;;;;;;;0.50;0.50;;;21.50;1.00;;;;;;5115759;28;20445;-72
2022/07/14 02:39:28;;;;;;;2.20;0.50;;;21.60;1.00;;;;;;5118338;28;20511;-71
2022/07/14 02:41:55;;;;;;;0.60;0.40;;;21.60;1.00;;;;;;5119703;28;20535;-72
2022/07/14 02:44:22;;;;;;;2.40;0.67;;;21.50;1.00;;;;;;5119781;28;20453;-72
2022/07/14 02:46:50;;;;;;;0.90;0.50;;;21.50;1.00;;;;;;5119450;28;20591;-72
2022/07/14 02:49:17;;;;;;;1.77;0.50;;;21.50;1.00;;;;;;5119309;28;20473;-72
2022/07/14 02:51:44;;;;;;;0.90;0.50;;;21.40;1.00;;;;;;5119765;28;21026;-72
2022/07/14 02:54:11;;;;;;;0.73;0.50;;;21.40;1.00;;;;;;5117957;28;20480;-71
2022/07/14 02:56:38;;;;;;;1.63;0.50;;;21.50;1.00;;;;;;5118286;28;20816;-73
2022/07/14 02:59:06;;;;;;;0.70;0.47;;;21.50;1.00;;;;;;5117882;28;20519;-72
2022/07/14 03:01:33;;;;;;;3.43;0.50;;;21.40;1.00;;;;;;5117711;28;20553;-72
2022/07/14 03:04:01;;;;;;;0.90;0.57;;;21.40;1.00;;;;;;5117165;28;20972;-72
2022/07/14 03:06:28;;;;;;;0.80;0.53;;;21.40;1.00;;;;;;5117380;28;20468;-73
2022/07/14 03:08:55;;;;;;;0.67;0.40;;;21.40;1.00;;;;;;5118538;28;20574;-72
2022/07/14 03:11:22;;;;;;;0.80;0.50;;;21.30;1.00;;;;;;5119375;28;20457;-73
2022/07/14 03:13:49;;;;;;;0.70;0.50;;;21.30;1.00;;;;;;5119185;28;20802;-72
2022/07/14 03:16:16;;;;;;;1.20;0.50;;;21.30;1.00;;;;;;5119276;28;20495;-72
2022/07/14 03:18:43;;;;;;;0.73;0.50;;;21.20;1.00;;;;;;5119085;28;20543;-73
2022/07/14 03:21:13;;;;;;;0.60;0.40;;;21.20;1.00;;;;;;5119096;28;20457;-72
2022/07/14 03:23:41;;;;;;;0.60;0.40;;;21.20;1.00;;;;;;5116818;28;20536;-72
2022/07/14 03:26:08;;;;;;;0.50;0.40;;;21.10;1.00;;;;;;5118107;28;20551;-71
2022/07/14 03:28:34;;;;;;;0.70;0.50;;;21.10;1.00;;;;;;5118564;28;20853;-72
2022/07/14 03:31:02;;;;;;;0.60;0.40;;;21.00;1.00;;;;;;5119330;28;20551;-72
2022/07/14 03:33:30;;;;;;;0.60;0.40;;;21.00;1.00;;;;;;5117769;28;20473;-72
2022/07/14 03:35:57;;;;;;;0.70;0.40;;;21.00;1.00;;;;;;5118614;28;20496;-72
2022/07/14 03:38:25;;;;;;;1.27;0.40;;;20.90;1.00;;;;;;5118958;28;20441;-73
2022/07/14 03:40:52;;;;;;;1.40;0.40;;;20.90;1.00;;;;;;5118711;28;20508;-73
2022/07/14 03:43:19;;;;;;;0.60;0.40;;;20.90;1.00;;;;;;5118707;28;20437;-72
2022/07/14 03:45:46;;;;;;;1.17;0.43;;;21.00;1.00;;;;;;5118351;28;20965;-73
2022/07/14 03:48:13;;;;;;;0.50;0.40;;;21.00;1.00;;;;;;5117932;28;20481;-73
2022/07/14 03:50:40;;;;;;;0.73;0.50;;;20.90;1.00;;;;;;5117462;28;20452;-73
2022/07/14 03:53:06;;;;;;;1.93;0.50;;;20.90;1.00;;;;;;5118221;28;20532;-72
2022/07/14 03:55:35;;;;;;;0.50;0.40;;;20.90;1.00;;;;;;5118139;28;20456;-73
2022/07/14 03:58:02;;;;;;;0.67;0.50;;;20.90;1.00;;;;;;5118274;28;20798;-72
2022/07/14 04:00:29;;;;;;;1.10;0.50;;;20.90;1.00;;;;;;5117571;28;20452;-73
2022/07/14 04:02:56;;;;;;;1.13;0.50;;;20.90;1.00;;;;;;5116836;28;20444;-72
2022/07/14 04:05:23;;;;;;;0.80;0.50;;;21.00;1.00;;;;;;5117697;28;20552;-72
2022/07/14 04:07:50;;;;;;;0.80;0.57;;;21.00;1.00;;;;;;5117596;28;20579;-72
2022/07/14 04:10:17;;;;;;;0.77;0.50;;;21.10;1.00;;;;;;5115685;28;20908;-72
2022/07/14 04:12:45;;;;;;;0.73;0.50;;;21.10;1.00;;;;;;5116144;28;20483;-73
2022/07/14 04:15:13;;;;;;;0.90;0.57;;;21.10;1.00;;;;;;5116283;28;20464;-72
2022/07/14 04:17:40;;;;;;;0.70;0.50;;;21.20;1.00;;;;;;5114896;28;20529;-72
2022/07/14 04:20:08;;;;;;;1.07;0.50;;;21.20;1.00;;;;;;5114587;28;20843;-72
2022/07/14 04:22:35;;;;;;;0.60;0.40;;;21.20;1.00;;;;;;5115474;28;20826;-72
2022/07/14 04:25:02;;;;;;;1.87;0.50;;;21.10;1.00;;;;;;5115153;28;20822;-72
2022/07/14 04:27:29;;;;;;;1.63;0.50;;;21.10;1.00;;;;;;5116042;28;20914;-73
2022/07/14 04:29:57;;;;;;;0.90;0.50;;;21.00;1.00;;;;;;5115728;28;20863;-73
2022/07/14 04:32:24;;;;;;;0.70;0.40;;;21.10;1.00;;;;;;5115717;28;20539;-73
2022/07/14 04:34:51;;;;;;;0.60;0.47;;;21.10;1.00;;;;;;5117487;28;20888;-73
2022/07/14 04:37:18;;;;;;;0.60;0.50;;;21.10;1.00;;;;;;5117166;28;20479;-71
2022/07/14 04:39:45;;;;;;;0.70;0.50;;;21.20;1.00;;;;;;5116851;28;20500;-72
2022/07/14 04:42:12;;;;;;;0.60;0.40;;;21.10;1.00;;;;;;5117180;28;20915;-71
2022/07/14 04:44:41;;;;;;;0.90;0.40;;;21.10;1.00;;;;;;5116156;28;20453;-71
2022/07/14 04:47:09;;;;;;;0.90;0.50;;;21.10;1.00;;;;;;5116967;28;20444;-71
2022/07/14 04:52:20;;;;;;;3.90;0.90;;;21.00;1.00;;;;;;5116910;28;20446;-71
2022/07/14 04:54:47;;;;;;;1.63;0.50;;;21.00;1.00;;;;;;5116015;28;20448;-71
2022/07/14 04:57:14;;;;;;;1.50;0.50;;;21.00;1.00;;;;;;5117005;28;20480;-72
2022/07/14 04:59:41;;;;;;;1.00;0.50;;;21.00;1.00;;;;;;5116066;28;20444;-72
2022/07/14 05:02:09;;;;;;;0.67;0.50;;;21.00;1.00;;;;;;5113956;28;20472;-72
2022/07/14 05:04:36;;;;;;;0.70;0.50;;;21.10;1.00;;;;;;5114235;28;20952;-71
2022/07/14 05:07:03;;;;;;;0.93;0.70;;;21.20;1.00;;;;;;5116312;28;20449;-72
2022/07/14 05:09:33;;;;;;;0.83;0.50;;;21.20;1.00;;;;;;5113290;28;20488;-71
2022/07/14 05:12:02;;;;;;;0.80;0.50;;;21.30;1.00;;;;;;5113353;28;20445;-72
2022/07/14 05:14:30;;;;;;;1.27;0.60;;;21.30;1.00;;;;;;5111716;28;20486;-73
2022/07/14 05:16:58;;;;;;;0.80;0.60;;;21.30;1.00;;;;;;5111335;28;20952;-71
2022/07/14 05:19:26;;;;;;;0.60;0.50;;;21.20;1.00;;;;;;5111292;28;20495;-71
2022/07/14 05:21:53;;;;;;;0.60;0.50;;;21.20;1.00;;;;;;5111454;28;20464;-71
2022/07/14 05:24:20;;;;;;;0.80;0.50;;;21.20;1.00;;;;;;5113183;28;20463;-71
2022/07/14 05:26:47;;;;;;;0.90;0.50;;;21.30;1.00;;;;;;5112403;28;20448;-72
2022/07/14 05:29:14;;;;;;;1.37;0.47;;;21.30;1.00;;;;;;5113439;28;20661;-71
2022/07/14 05:31:40;;;;;;;0.60;0.50;;;21.40;1.00;;;;;;5113280;28;20445;-71
2022/07/14 05:34:07;;;;;;;0.80;0.50;;;21.40;1.00;;;;;;5114217;28;20533;-71
2022/07/14 05:36:36;;;;;;;0.50;0.40;;;21.50;1.00;;;;;;5114174;28;20452;-71
2022/07/14 05:39:03;;;;;;;0.80;0.53;;;21.50;1.00;;;;;;5111713;28;20509;-71
2022/07/14 05:41:30;;;;;;;0.73;0.50;;;21.50;1.00;;;;;;5109938;28;20505;-71
2022/07/14 05:43:57;;;;;;;1.70;0.60;;;21.60;1.00;;;;;;5110909;28;20476;-71
2022/07/14 05:46:24;;;;;;;0.90;0.60;;;21.60;1.00;;;;;;5109854;28;20480;-71
2022/07/14 05:48:51;;;;;;;1.37;0.50;;;21.60;1.00;;;;;;5109769;28;20567;-72
2022/07/14 05:51:20;;;;;;;1.00;0.60;;;21.70;1.00;;;;;;5110453;28;20492;-72
2022/07/14 05:53:49;;;;;;;0.73;0.50;;;21.70;1.00;;;;;;5112931;28;20449;-72
2022/07/14 05:56:18;;;;;;;0.90;0.60;;;21.80;1.00;;;;;;5113317;28;20503;-73
2022/07/14 05:58:46;;;;;;;0.80;0.53;;;21.80;1.00;;;;;;5112930;28;20441;-72
2022/07/14 06:01:14;;;;;;;0.80;0.60;;;21.90;1.00;;;;;;5111517;28;20464;-73
2022/07/14 06:03:41;;;;;;;1.00;0.50;;;22.00;1.00;;;;;;5113298;28;20549;-76
2022/07/14 06:06:10;;;;;;;2.30;0.60;;;22.10;1.00;;;;;;5115055;28;20831;-76
2022/07/14 06:08:38;;;;;;;0.63;0.50;;;22.30;1.00;;;;;;5114267;28;20483;-76
2022/07/14 06:11:07;;;;;;;1.07;0.40;;;22.40;1.00;;;;;;5115622;28;20562;-75
2022/07/14 06:13:34;;;;;;;2.97;0.70;;;22.50;1.00;;;;;;5116319;28;20484;-75
2022/07/14 06:16:01;;;;;;;0.80;0.50;;;22.60;1.00;;;;;;5118054;28;20456;-75
2022/07/14 06:18:28;;;;;;;0.80;0.50;;;22.70;1.00;;;;;;5119202;28;20498;-75
2022/07/14 06:20:55;;;;;;;1.20;0.70;;;22.80;1.00;;;;;;5118421;28;20772;-74
2022/07/14 06:23:22;;;;;;;3.33;1.00;;;22.90;1.00;;;;;;5118682;28;20544;-75
2022/07/14 06:25:49;;;;;;;1.20;0.50;;;23.00;1.00;;;;;;5118458;28;20868;-75
2022/07/14 06:28:18;;;;;;;1.90;0.50;;;23.20;1.00;;;;;;5119435;28;20499;-75
2022/07/14 06:30:45;;;;;;;0.80;0.50;;;23.30;1.00;;;;;;5118837;28;20970;-75
2022/07/14 06:33:12;;;;;;;1.57;0.50;;;23.40;1.00;;;;;;5118444;28;20448;-74
2022/07/14 06:35:40;;;;;;;0.70;0.50;;;23.60;1.00;;;;;;5119266;28;20502;-74
2022/07/14 06:38:07;;;;;;;0.60;0.50;;;23.70;1.00;;;;;;5119162;28;20440;-75
2022/07/14 06:40:34;;;;;;;0.93;0.50;;;23.80;1.00;;;;;;5117586;28;20479;-75
2022/07/14 06:43:01;;;;;;;1.00;0.60;;;23.90;1.00;;;;;;5118319;28;20444;-75
2022/07/14 06:45:29;;;;;;;1.80;0.50;;;24.10;1.00;;;;;;5118484;28;20480;-75
2022/07/14 06:47:57;;;;;;;0.90;0.50;;;24.30;1.00;;;;;;5118449;28;20480;-75
2022/07/14 06:50:24;;;;;;;1.17;0.50;;;24.50;1.00;;;;;;5118291;28;20491;-75
2022/07/14 06:52:51;;;;;;;0.67;0.40;;;24.60;1.00;;;;;;5117509;28;20844;-75
2022/07/14 06:55:18;;;;;;;1.00;0.40;;;24.80;1.00;;;;;;5117878;28;20510;-75
2022/07/14 06:57:46;;;;;;;0.93;0.50;;;24.90;1.00;;;;;;5117719;28;20556;-75
2022/07/14 07:00:14;;;;;;;1.63;0.60;;;25.10;1.00;;;;;;5116871;28;20543;-76
2022/07/14 07:02:43;;;;;;;2.90;0.60;;;25.20;1.00;;;;;;5117373;28;20465;-76
2022/07/14 07:07:57;;;;;;;0.93;0.50;;;25.50;1.00;;;;;;5118047;28;20424;-76
2022/07/14 07:10:24;;;;;;;0.60;0.40;;;25.50;1.00;;;;;;5118258;28;20509;-74
2022/07/14 07:12:51;;;;;;;0.70;0.50;;;25.70;1.00;;;;;;5118608;28;20460;-75
2022/07/14 07:15:19;;;;;;;0.60;0.40;;;25.80;1.00;;;;;;5118348;28;20491;-73
2022/07/14 07:17:47;;;;;;;3.60;0.50;;;25.90;1.00;;;;;;5117598;28;20828;-74
2022/07/14 07:20:14;;;;;;;2.63;0.60;;;26.10;1.00;;;;;;5117281;28;20475;-74
2022/07/14 07:22:41;;;;;;;0.70;0.57;;;26.30;1.00;;;;;;5118204;28;20476;-76
2022/07/14 07:25:09;;;;;;;2.30;0.70;;;26.50;1.00;;;;;;5117346;28;20492;-74
2022/07/14 07:27:36;;;;;;;0.70;0.50;;;26.60;1.00;;;;;;5117301;28;20536;-74
2022/07/14 07:30:04;;;;;;;1.70;0.77;;;26.70;1.00;;;;;;5116335;28;21167;-74
2022/07/14 07:32:32;;;;;;;0.80;0.60;;;26.90;1.00;;;;;;5117001;28;20991;-74
2022/07/14 07:35:02;;;;;;;0.80;0.60;;;27.00;1.00;;;;;;5117864;28;20506;-74
2022/07/14 07:37:29;;;;;;;0.80;0.40;;;27.10;1.00;;;;;;5117310;28;20910;-76
2022/07/14 07:39:58;;;;;;;0.80;0.50;;;27.20;1.00;;;;;;5116765;28;20476;-74
2022/07/14 07:42:26;;;;;;;0.80;0.50;;;27.30;1.00;;;;;;5115527;28;20518;-74
2022/07/14 07:44:55;;;;;;;0.70;0.50;;;27.30;1.00;;;;;;5114026;28;20864;-74
2022/07/14 07:47:22;;;;;;;1.77;0.60;;;27.30;1.00;;;;;;5116303;28;20513;-74
2022/07/14 07:49:49;;;;;;;0.77;0.60;;;27.30;1.00;;;;;;5104963;28;20575;-74
2022/07/14 07:52:17;;;;;;;1.93;0.80;;;27.40;1.00;;;;;;5095139;28;20956;-76
2022/07/14 07:54:44;;;;;;;1.20;0.70;;;27.60;1.00;;;;;;5110468;28;20957;-74
2022/07/14 07:57:11;;;;;;;0.70;0.50;;;27.70;1.00;;;;;;5102719;28;20577;-74
2022/07/14 07:59:38;;;;;;;2.53;0.60;;;27.90;1.00;;;;;;5111525;28;20495;-76
2022/07/14 08:02:05;;;;;;;0.80;0.40;;;28.00;1.00;;;;;;5107588;28;20457;-76
2022/07/14 08:04:33;;;;;;;0.60;0.40;;;28.10;1.00;;;;;;5115229;28;20605;-74
2022/07/14 08:06:59;;;;;;;0.70;0.40;;;28.10;1.00;;;;;;5109502;28;20449;-74
2022/07/14 08:09:28;;;;;;;0.80;0.30;;;28.20;1.00;;;;;;5115991;28;20485;-74
2022/07/14 08:11:55;;;;;;;0.60;0.40;;;28.40;1.00;;;;;;5116371;28;20485;-78
2022/07/14 08:17:06;;;;;;;0.60;0.40;;;28.60;1.00;;;;;;5096165;28;20934;-75
2022/07/14 08:19:33;;;;;;;0.90;0.50;;;28.70;1.00;;;;;;5075444;28;20445;-75
2022/07/14 08:22:00;;;;;;;0.70;0.47;;;28.80;1.00;;;;;;5108259;28;20503;-75
2022/07/14 08:24:29;;;;;;;0.73;0.50;;;28.70;1.00;;;;;;5113959;28;20461;-73
2022/07/14 08:26:56;;;;;;;0.60;0.40;;;28.70;1.00;;;;;;5113490;28;20449;-72
2022/07/14 08:29:23;;;;;;;0.70;0.50;;;28.70;1.00;;;;;;5113495;28;20499;-70
2022/07/14 08:31:50;;;;;;;0.80;0.33;;;28.70;1.00;;;;;;5109785;28;20497;-71
2022/07/14 08:34:17;;;;;;;1.67;0.50;;;28.70;1.00;;;;;;5109182;28;20543;-71
2022/07/14 08:36:44;;;;;;;0.90;0.50;;;28.70;1.00;;;;;;5112961;28;20445;-71
2022/07/14 08:39:11;;;;;;;0.60;0.40;;;28.80;1.00;;;;;;5115271;28;20464;-71
2022/07/14 08:41:41;;;;;;;0.90;0.40;;;28.80;1.00;;;;;;5113124;28;20476;-70
2022/07/14 08:44:09;;;;;;;0.60;0.40;;;28.70;1.00;;;;;;5114594;28;21017;-72
2022/07/14 08:46:38;;;;;;;0.90;0.40;;;28.60;1.00;;;;;;5116323;28;20939;-71
2022/07/14 08:49:07;;;;;;;3.33;0.40;;;28.70;1.00;;;;;;5114674;28;20498;-74
2022/07/14 08:51:34;;;;;;;0.90;0.60;;;28.70;1.00;;;;;;5114072;28;20470;-71
2022/07/14 08:54:02;;;;;;;0.50;0.50;;;28.80;1.00;;;;;;5109711;28;20539;-72
2022/07/14 08:56:29;;;;;;;1.47;0.50;;;28.90;1.00;;;;;;5097173;28;20528;-71
2022/07/14 08:58:58;;;;;;;1.10;0.40;;;29.00;1.00;;;;;;5106672;28;20491;-71
2022/07/14 09:01:26;;;;;;;0.60;0.40;;;29.00;1.00;;;;;;5107420;28;20452;-73
2022/07/14 09:03:53;;;;;;;0.60;0.40;;;29.20;1.00;;;;;;5111655;28;20449;-74
2022/07/14 09:06:46;;;;;;;1.03;0.50;;;29.20;1.00;;;;;;5109378;28;20571;-73
2022/07/14 09:09:16;;;;;;;1.20;0.60;;;29.30;1.00;;;;;;5106100;28;20477;-73
2022/07/14 09:11:50;;;;;;;1.27;0.40;;;29.30;1.00;;;;;;5104386;28;20448;-74
2022/07/14 09:14:19;;;;;;;0.70;0.40;;;29.40;1.00;;;;;;5094734;28;20488;-72
2022/07/14 09:16:46;;;;;;;0.50;0.40;;;29.50;1.00;;;;;;5093320;28;20857;-72
2022/07/14 09:19:15;;;;;;;1.00;0.40;;;29.70;1.00;;;;;;5099968;28;20450;-71
2022/07/14 09:21:45;;;;;;;0.70;0.40;;;29.80;1.00;;;;;;5111586;28;20485;-72
2022/07/14 09:24:14;;;;;;;0.67;0.40;;;29.90;1.00;;;;;;5103883;28;20499;-70
2022/07/14 09:26:46;;;;;;;1.03;0.60;;;30.00;1.00;;;;;;5113838;28;20868;-71
2022/07/14 09:29:23;;;;;;;0.50;0.40;;;30.20;1.00;;;;;;5113164;28;20487;-71
2022/07/14 09:31:50;;;;;;;0.50;0.40;;;30.40;1.00;;;;;;5091966;28;20519;-70
2022/07/14 09:34:29;;;;;;;1.23;0.47;;;30.60;1.00;;;;;;5091861;28;20481;-71
2022/07/14 09:37:13;;;;;;;1.07;0.40;;;30.70;1.00;;;;;;5111423;28;20931;-73
2022/07/14 09:39:52;;;;;;;2.00;0.70;;;30.80;1.00;;;;;;5109011;28;20574;-73
2022/07/14 09:42:19;;;;;;;0.60;0.50;;;30.90;1.00;;;;;;5105491;28;20531;-72
2022/07/14 09:44:47;;;;;;;0.50;0.40;;;31.10;1.00;;;;;;5103843;28;20448;-73
2022/07/14 09:47:14;;;;;;;0.50;0.40;;;31.20;1.00;;;;;;5112533;28;20892;-72
2022/07/14 09:49:41;;;;;;;0.53;0.40;;;31.10;1.00;;;;;;5114049;28;20476;-72
2022/07/14 09:52:09;;;;;;;2.07;0.50;;;31.00;1.00;;;;;;5117560;28;21094;-71
2022/07/14 09:54:57;;;;;;;0.63;0.43;;;31.10;1.00;;;;;;5110266;28;20456;-70
2022/07/14 09:57:27;;;;;;;0.70;0.40;;;30.80;1.00;;;;;;5107561;28;20441;-73
2022/07/14 10:00:10;;;;;;;1.10;0.50;;;31.00;1.00;;;;;;5114856;28;20448;-72
2022/07/14 10:02:41;;;;;;;0.60;0.50;;;31.10;1.00;;;;;;5108891;28;20801;-73
2022/07/14 10:05:09;;;;;;;0.65;0.50;;;31.30;1.00;;;;;;5100300;28;20529;-73
2022/07/14 10:07:38;;;;;;;2.50;0.50;;;31.40;1.00;;;;;;5108806;28;20487;-72
2022/07/14 10:10:08;;;;;;;1.37;0.40;;;31.20;1.00;;;;;;5107324;28;20585;-71
2022/07/14 10:12:36;;;;;;;0.70;0.40;;;31.20;1.00;;;;;;5113879;28;20914;-71
2022/07/14 10:15:07;;;;;;;1.23;0.50;;;31.50;1.00;;;;;;5114205;28;20547;-72
2022/07/14 10:17:38;;;;;;;0.60;0.47;;;31.80;1.00;;;;;;5103762;28;20444;-72
2022/07/14 10:20:08;;;;;;;0.93;0.50;;;31.80;1.00;;;;;;5109903;28;20455;-72
2022/07/14 10:22:36;;;;;;;0.60;0.40;;;32.00;1.00;;;;;;5107769;28;20526;-72
2022/07/14 10:25:09;;;;;;;0.60;0.50;;;32.30;1.00;;;;;;5111693;28;20522;-71
2022/07/14 10:27:39;;;;;;;0.90;0.50;;;32.50;1.00;;;;;;5111662;28;20450;-73
2022/07/14 10:30:09;;;;;;;0.50;0.50;;;32.90;1.00;;;;;;5111086;28;20480;-73
2022/07/14 10:32:44;;;;;;;0.60;0.40;;;33.30;1.00;;;;;;5106832;28;20765;-72
2022/07/14 10:35:29;;;;;;;0.70;0.50;;;33.60;1.00;;;;;;5111797;28;20480;-73
2022/07/14 10:38:22;;;;;;;0.80;0.50;;;33.90;1.00;;;;;;5112329;28;20529;-72
2022/07/14 10:41:03;;;;;;;0.50;0.40;;;33.90;1.00;;;;;;5108591;28;20484;-72
2022/07/14 10:43:58;;;;;;;0.77;0.50;;;33.80;1.00;;;;;;5102222;28;20806;-72
2022/07/14 10:46:37;;;;;;;0.80;0.53;;;34.00;1.00;;;;;;5096992;28;20538;-71
2022/07/14 10:49:05;;;;;;;0.57;0.43;;;34.20;1.00;;;;;;5097049;28;20445;-72
2022/07/14 10:51:33;;;;;;;0.77;0.50;;;34.30;1.00;;;;;;5107559;28;20480;-72
2022/07/14 10:54:01;;;;;;;0.60;0.40;;;34.10;1.00;;;;;;5099493;28;20483;-73
2022/07/14 10:56:29;;;;;;;0.80;0.50;;;34.30;1.00;;;;;;5114280;28;20483;-73
2022/07/14 10:59:34;;;;;;;0.57;0.47;;;34.80;1.00;;;;;;5110746;28;20452;-70
2022/07/14 11:02:38;;;;;;;2.83;1.63;;;35.10;1.00;;;;;;5111700;28;20451;-73
2022/07/14 11:05:22;;;;;;;0.80;0.40;;;35.70;1.00;;;;;;5114106;28;20452;-71
2022/07/14 11:07:51;;;;;;;0.60;0.40;;;35.70;1.00;;;;;;5112279;28;20811;-73
2022/07/14 11:11:10;;;;;;;0.70;0.60;;;35.60;1.00;;;;;;5110685;28;20487;-72
2022/07/14 11:14:05;;;;;;;2.87;0.40;;;35.80;1.00;;;;;;5111009;28;20475;-72
2022/07/14 11:16:57;;;;;;;0.70;0.50;;;35.70;1.00;;;;;;5111910;28;20481;-73
2022/07/14 11:19:31;;;;;;;0.70;0.40;;;35.40;99.90;;;;;;5112264;28;20811;-72
2022/07/14 11:22:19;;;;;;;1.27;0.50;;;35.60;99.90;;;;;;5111276;28;20441;-73
2022/07/14 11:24:53;;;;;;;0.80;0.50;;;35.20;99.90;;;;;;5113298;28;20513;-73
2022/07/14 11:27:38;;;;;;;0.80;0.50;;;35.30;99.90;;;;;;5112158;28;20887;-71
2022/07/14 11:30:31;;;;;;;0.50;0.40;;;35.60;99.90;;;;;;5103255;28;20476;-72
2022/07/14 11:33:00;;;;;;;0.90;0.50;;;35.60;99.90;;;;;;5093859;28;20459;-72
2022/07/14 11:38:33;;;;;;;0.60;0.50;;;36.20;99.90;;;;;;5116312;28;20716;-72
2022/07/14 11:41:02;;;;;;;0.90;0.40;;;36.00;99.90;;;;;;5116146;28;20475;-72
2022/07/14 11:43:45;;;;;;;1.73;0.57;;;36.00;99.90;;;;;;5116967;28;20989;-71
2022/07/14 11:46:14;;;;;;;0.60;0.50;;;36.30;99.90;;;;;;5114478;28;20513;-71
2022/07/14 11:48:44;;;;;;;0.50;0.43;;;36.30;99.90;;;;;;5113591;28;20520;-71
2022/07/14 11:51:15;;;;;;;0.60;0.50;;;36.50;99.90;;;;;;5112081;28;20775;-72
2022/07/14 11:53:42;;;;;;;0.63;0.60;;;36.40;99.90;;;;;;5115503;28;20447;-72
2022/07/14 11:56:10;;;;;;;0.67;0.50;;;36.60;99.90;;;;;;5115535;28;20473;-71
2022/07/14 11:58:39;;;;;;;0.80;0.50;;;36.90;99.90;;;;;;5114825;28;20537;-71
2022/07/14 12:01:07;;;;;;;0.57;0.40;;;36.70;99.90;;;;;;5114175;28;20761;-71
2022/07/14 12:03:35;;;;;;;0.80;0.50;;;36.50;99.90;;;;;;5115293;28;20444;-71
2022/07/14 12:06:03;;;;;;;0.50;0.40;;;36.80;99.90;;;;;;5113863;28;20453;-71
2022/07/14 12:08:34;;;;;;;0.57;0.43;;;36.90;99.90;;;;;;5114542;28;20880;-70
2022/07/14 12:11:08;;;;;;;0.67;0.53;;;37.10;99.90;;;;;;5114116;28;20568;-70
2022/07/14 12:13:49;;;;;;;0.60;0.50;;;37.20;99.90;;;;;;5116839;28;20911;-71
2022/07/14 12:16:16;;;;;;;0.60;0.43;;;37.30;99.90;;;;;;5116135;28;20470;-71
2022/07/14 12:18:43;;;;;;;0.50;0.40;;;37.30;99.90;;;;;;5114937;28;20472;-71
2022/07/14 12:21:11;;;;;;;0.60;0.50;;;37.20;99.90;;;;;;5114954;28;20759;-71
2022/07/14 12:23:53;;;;;;;0.60;0.50;;;36.80;99.90;;;;;;5113619;28;20544;-70
2022/07/14 12:26:22;;;;;;;1.10;0.50;;;36.40;99.90;;;;;;5115286;28;20459;-70
2022/07/14 12:28:50;;;;;;;1.60;0.50;;;36.30;99.90;;;;;;5115366;28;20479;-71
2022/07/14 12:31:17;;;;;;;0.50;0.50;;;36.60;99.90;;;;;;5115699;28;20579;-71
2022/07/14 12:33:46;;;;;;;2.20;0.40;;;36.90;99.90;;;;;;5115040;28;20455;-71
2022/07/14 12:36:15;;;;;;;0.90;0.50;;;36.80;99.90;;;;;;5114269;28;21047;-71
2022/07/14 12:38:43;;;;;;;1.17;0.40;;;37.00;99.90;;;;;;5113554;28;20928;-71
2022/07/14 12:41:12;;;;;;;0.60;0.40;;;37.00;99.90;;;;;;5113372;28;20519;-71
2022/07/14 12:43:41;;;;;;;0.50;0.40;;;37.00;99.90;;;;;;5113573;28;20484;-71
2022/07/14 12:46:10;;;;;;;2.63;0.50;;;37.00;99.90;;;;;;5113842;28;20540;-71
2022/07/14 12:48:56;;;;;;;0.53;0.40;;;36.60;99.90;;;;;;5114602;28;20806;-71
2022/07/14 12:51:24;;;;;;;0.50;0.40;;;36.30;99.90;;;;;;5113644;28;20508;-70
2022/07/14 12:54:06;;;;;;;0.77;0.40;;;36.30;99.90;;;;;;5114464;28;20930;-69
2022/07/14 12:56:36;;;;;;;0.60;0.40;;;35.90;99.90;;;;;;5115119;28;20451;-72
2022/07/14 12:59:05;;;;;;;0.80;0.47;;;35.80;99.90;;;;;;5113768;28;20436;-72
2022/07/14 13:01:43;;;;;;;0.70;0.40;;;35.70;99.90;;;;;;5116042;28;20468;-72
2022/07/14 13:04:10;;;;;;;0.60;0.40;;;35.50;99.90;;;;;;5114185;28;20493;-73
2022/07/14 13:06:45;;;;;;;1.37;0.50;;;35.40;99.90;;;;;;5114829;28;20713;-72
2022/07/14 13:09:17;;;;;;;0.50;0.40;;;35.20;99.90;;;;;;5113018;28;20565;-72
2022/07/14 13:11:46;;;;;;;0.63;0.40;;;34.90;99.90;;;;;;5113007;28;20595;-71
2022/07/14 13:14:14;;;;;;;1.53;0.40;;;34.70;99.90;;;;;;5112226;28;20437;-71
2022/07/14 13:16:44;;;;;;;0.50;0.40;;;35.00;99.90;;;;;;5113103;28;20742;-72
2022/07/14 13:19:17;;;;;;;0.50;0.40;;;35.10;99.90;;;;;;5113546;28;20544;-70
2022/07/14 13:21:59;;;;;;;0.47;0.40;;;35.60;99.90;;;;;;5113693;28;20809;-73